createdAt,value
2023-02-16T00:01:52.634Z,3.90
2023-02-16T00:04:23.173Z,3.81
2023-02-16T00:06:54.025Z,3.76
2023-02-16T00:09:22.865Z,3.75
2023-02-16T00:12:09.252Z,3.81
2023-02-16T00:14:39.195Z,3.66
2023-02-16T00:17:07.288Z,3.75
2023-02-16T00:19:37.801Z,3.11
2023-02-16T00:22:08.992Z,3.50
2023-02-16T00:24:37.785Z,3.64
2023-02-16T00:27:14.756Z,3.92
2023-02-16T00:29:45.669Z,4.25
2023-02-16T00:32:14.834Z,4.39
2023-02-16T00:34:45.971Z,3.91
2023-02-16T00:37:15.380Z,4.15
2023-02-16T00:39:45.389Z,4.25
2023-02-16T00:42:18.514Z,4.15
2023-02-16T00:44:49.434Z,4.24
2023-02-16T00:47:21.459Z,4.14
2023-02-16T00:49:51.840Z,4.23
2023-02-16T00:52:33.195Z,4.07
2023-02-16T00:55:03.586Z,4.18
2023-02-16T00:57:35.163Z,4.30
2023-02-16T01:00:08.459Z,4.14
2023-02-16T01:02:36.929Z,4.03
2023-02-16T01:05:05.752Z,4.26
2023-02-16T01:07:52.814Z,4.33
2023-02-16T01:10:38.820Z,4.26
2023-02-16T01:13:08.176Z,4.43
2023-02-16T01:15:37.578Z,4.44
2023-02-16T01:18:06.120Z,4.15
2023-02-16T01:20:36.235Z,3.93
2023-02-16T01:23:05.789Z,4.01
2023-02-16T01:25:33.856Z,4.04
2023-02-16T01:28:02.526Z,4.10
2023-02-16T01:30:31.043Z,3.93
2023-02-16T01:32:59.277Z,3.67
2023-02-16T01:35:32.530Z,4.22
2023-02-16T01:38:01.067Z,4.02
2023-02-16T01:40:41.347Z,3.93
2023-02-16T01:43:19.808Z,4.42
2023-02-16T01:45:55.561Z,4.53
2023-02-16T01:48:27.478Z,4.46
2023-02-16T01:51:00.811Z,4.17
2023-02-16T01:53:33.158Z,4.47
2023-02-16T01:56:06.281Z,4.16
2023-02-16T01:58:41.881Z,4.23
2023-02-16T02:01:40.385Z,4.22
2023-02-16T02:04:33.040Z,4.26
2023-02-16T02:07:01.306Z,4.28
2023-02-16T02:09:38.397Z,4.07
2023-02-16T02:12:15.700Z,4.33
2023-02-16T02:14:44.265Z,4.37
2023-02-16T02:17:17.729Z,4.31
2023-02-16T02:19:55.674Z,4.65
2023-02-16T02:23:16.395Z,4.22
2023-02-16T02:26:33.307Z,4.36
2023-02-16T02:29:18.490Z,4.06
2023-02-16T02:31:57.148Z,4.33
2023-02-16T02:34:40.862Z,4.39
2023-02-16T02:37:17.029Z,4.51
2023-02-16T02:39:54.240Z,4.50
2023-02-16T02:42:31.224Z,4.48
2023-02-16T02:45:06.252Z,4.49
2023-02-16T02:47:41.809Z,4.12
2023-02-16T02:51:02.825Z,4.24
2023-02-16T02:53:33.175Z,3.57
2023-02-16T02:56:21.294Z,4.10
2023-02-16T02:59:11.867Z,3.63
2023-02-16T03:01:44.447Z,4.18
2023-02-16T03:04:18.482Z,3.63
2023-02-16T03:06:51.223Z,3.69
2023-02-16T03:09:21.251Z,3.85
2023-02-16T03:12:08.633Z,3.80
2023-02-16T03:14:43.396Z,3.89
2023-02-16T03:17:31.697Z,4.44
2023-02-16T03:20:20.478Z,4.43
2023-02-16T03:23:06.315Z,4.43
2023-02-16T03:25:56.312Z,4.59
2023-02-16T03:28:44.835Z,4.46
2023-02-16T03:31:20.105Z,4.08
2023-02-16T03:33:54.668Z,3.91
2023-02-16T03:36:23.948Z,3.79
2023-02-16T03:38:53.020Z,4.09
2023-02-16T03:41:22.019Z,3.92
2023-02-16T03:43:49.946Z,4.03
2023-02-16T03:46:19.792Z,3.87
2023-02-16T03:48:47.841Z,3.85
2023-02-16T03:51:15.829Z,3.89
2023-02-16T03:53:43.958Z,3.85
2023-02-16T03:56:11.915Z,3.57
2023-02-16T03:59:04.988Z,3.67
2023-02-16T04:01:34.661Z,3.12
2023-02-16T04:04:02.849Z,3.27
2023-02-16T04:06:31.140Z,3.31
2023-02-16T04:08:59.511Z,3.05
2023-02-16T04:11:45.002Z,3.02
2023-02-16T04:14:13.310Z,2.87
2023-02-16T04:16:42.748Z,2.99
2023-02-16T04:19:11.272Z,2.84
2023-02-16T04:21:39.663Z,3.23
2023-02-16T04:24:08.019Z,3.09
2023-02-16T04:26:36.248Z,3.16
2023-02-16T04:29:04.235Z,2.97
2023-02-16T04:31:32.559Z,2.60
2023-02-16T04:34:01.898Z,2.88
2023-02-16T04:36:31.705Z,3.24
2023-02-16T04:38:59.760Z,3.22
2023-02-16T04:41:27.753Z,3.13
2023-02-16T04:43:56.506Z,2.81
2023-02-16T04:46:25.024Z,3.03
2023-02-16T04:48:53.338Z,3.00
2023-02-16T04:51:23.032Z,3.03
2023-02-16T04:53:51.097Z,3.19
2023-02-16T04:56:19.046Z,3.29
2023-02-16T04:58:47.322Z,2.88
2023-02-16T05:01:20.402Z,3.06
2023-02-16T05:03:48.984Z,3.17
2023-02-16T05:06:17.297Z,3.28
2023-02-16T05:08:47.538Z,3.22
2023-02-16T05:11:33.104Z,3.20
2023-02-16T05:14:18.926Z,3.27
2023-02-16T05:16:47.671Z,2.70
2023-02-16T05:19:16.025Z,2.73
2023-02-16T05:21:44.586Z,2.68
2023-02-16T05:24:14.194Z,2.41
2023-02-16T05:26:42.120Z,2.62
2023-02-16T05:29:10.132Z,2.77
2023-02-16T05:31:38.755Z,2.67
2023-02-16T05:34:06.974Z,2.88
2023-02-16T05:36:35.152Z,2.45
2023-02-16T05:39:03.334Z,2.39
2023-02-16T05:41:32.961Z,2.32
2023-02-16T05:44:02.457Z,2.50
2023-02-16T05:46:33.699Z,2.42
2023-02-16T05:49:03.356Z,2.20
2023-02-16T05:51:31.485Z,2.69
2023-02-16T05:53:59.951Z,3.06
2023-02-16T05:56:30.062Z,2.64
2023-02-16T05:59:00.731Z,2.79
2023-02-16T06:01:29.768Z,2.54
2023-02-16T06:03:58.365Z,2.66
2023-02-16T06:06:26.433Z,2.82
2023-02-16T06:08:54.771Z,3.10
2023-02-16T06:11:37.925Z,3.04
2023-02-16T06:14:10.096Z,3.22
2023-02-16T06:16:39.941Z,3.05
2023-02-16T06:19:08.989Z,3.26
2023-02-16T06:21:37.969Z,3.14
2023-02-16T06:24:06.399Z,3.19
2023-02-16T06:26:35.030Z,3.04
2023-02-16T06:29:03.143Z,2.74
2023-02-16T06:31:35.836Z,2.90
2023-02-16T06:34:05.283Z,3.17
2023-02-16T06:36:34.110Z,3.28
2023-02-16T06:39:02.389Z,3.18
2023-02-16T06:41:35.764Z,3.13
2023-02-16T06:44:06.618Z,2.82
2023-02-16T06:46:36.623Z,2.87
2023-02-16T06:49:19.190Z,2.88
2023-02-16T06:52:06.014Z,2.77
2023-02-16T06:54:34.549Z,2.59
2023-02-16T06:57:02.600Z,2.82
2023-02-16T06:59:30.865Z,3.46
2023-02-16T07:02:00.484Z,3.47
2023-02-16T07:04:28.622Z,4.00
2023-02-16T07:07:15.835Z,4.11
2023-02-16T07:09:44.446Z,3.96
2023-02-16T07:12:13.554Z,3.87
2023-02-16T07:14:43.190Z,4.42
2023-02-16T07:17:14.606Z,4.31
2023-02-16T07:19:43.025Z,4.24
2023-02-16T07:22:11.334Z,3.96
2023-02-16T07:24:39.378Z,4.35
2023-02-16T07:27:08.710Z,4.15
2023-02-16T07:29:37.211Z,4.15
2023-02-16T07:32:05.547Z,4.87
2023-02-16T07:34:35.575Z,6.08
2023-02-16T07:37:03.752Z,6.62
2023-02-16T07:39:32.090Z,7.55
2023-02-16T07:42:00.186Z,7.94
2023-02-16T07:44:28.283Z,7.95
2023-02-16T07:46:56.482Z,6.95
2023-02-16T07:49:24.650Z,6.89
2023-02-16T07:51:54.229Z,7.39
2023-02-16T07:54:22.190Z,7.51
2023-02-16T07:56:50.393Z,7.88
2023-02-16T07:59:18.552Z,7.74
2023-02-16T08:01:47.015Z,8.47
2023-02-16T08:04:25.402Z,7.45
2023-02-16T08:06:55.124Z,7.05
2023-02-16T08:09:23.492Z,7.49
2023-02-16T08:11:51.629Z,7.38
2023-02-16T08:14:19.824Z,7.84
2023-02-16T08:16:50.369Z,7.57
2023-02-16T08:19:20.704Z,7.73
2023-02-16T08:21:49.523Z,8.94
2023-02-16T08:24:19.036Z,9.84
2023-02-16T08:26:49.959Z,10.76
2023-02-16T08:29:20.008Z,11.24
2023-02-16T08:31:49.176Z,10.20
2023-02-16T08:34:20.300Z,9.50
2023-02-16T08:36:53.121Z,8.52
2023-02-16T08:39:24.324Z,7.44
2023-02-16T08:41:53.275Z,7.83
2023-02-16T08:44:23.798Z,8.00
2023-02-16T08:46:54.180Z,7.43
2023-02-16T08:49:24.109Z,7.11
2023-02-16T08:51:54.811Z,6.92
2023-02-16T08:54:27.200Z,7.79
2023-02-16T08:56:55.882Z,8.69
2023-02-16T08:59:28.302Z,8.90
2023-02-16T09:01:57.195Z,9.20
2023-02-16T09:04:25.698Z,9.14
2023-02-16T09:06:54.127Z,9.13
2023-02-16T09:09:22.146Z,8.84
2023-02-16T09:11:51.556Z,8.89
2023-02-16T09:14:21.614Z,8.90
2023-02-16T09:16:50.772Z,10.15
2023-02-16T09:19:21.465Z,9.80
2023-02-16T09:21:52.151Z,10.41
2023-02-16T09:24:20.273Z,10.36
2023-02-16T09:26:48.231Z,10.46
2023-02-16T09:29:18.436Z,11.15
2023-02-16T09:31:46.866Z,12.20
2023-02-16T09:34:17.822Z,11.89
2023-02-16T09:36:47.385Z,12.60
2023-02-16T09:39:16.559Z,12.68
2023-02-16T09:42:01.598Z,10.45
2023-02-16T09:44:40.233Z,11.86
2023-02-16T09:47:19.432Z,12.08
2023-02-16T09:49:48.985Z,12.19
2023-02-16T09:52:26.247Z,12.37
2023-02-16T09:54:57.672Z,12.70
2023-02-16T09:57:39.219Z,13.38
2023-02-16T10:00:18.684Z,13.87
2023-02-16T10:02:54.218Z,14.06
2023-02-16T10:05:28.105Z,12.91
2023-02-16T10:08:02.022Z,12.73
2023-02-16T10:10:42.333Z,12.10
2023-02-16T10:13:20.373Z,13.13
2023-02-16T10:15:53.597Z,13.24
2023-02-16T10:18:29.468Z,14.44
2023-02-16T10:21:25.481Z,15.47
2023-02-16T10:23:59.979Z,15.92
2023-02-16T10:26:33.620Z,14.06
2023-02-16T10:29:07.530Z,14.76
2023-02-16T10:31:42.863Z,15.31
2023-02-16T10:34:23.028Z,15.03
2023-02-16T10:37:14.771Z,14.24
2023-02-16T10:39:49.330Z,14.64
2023-02-16T10:42:26.251Z,14.56
2023-02-16T10:45:00.928Z,15.09
2023-02-16T10:47:36.844Z,13.73
2023-02-16T10:50:07.172Z,13.67
2023-02-16T10:52:40.703Z,13.28
2023-02-16T10:55:09.209Z,11.23
2023-02-16T10:57:37.303Z,11.69
2023-02-16T11:00:11.610Z,13.07
2023-02-16T11:02:43.626Z,12.92
2023-02-16T11:05:38.239Z,12.13
2023-02-16T11:08:11.303Z,13.64
2023-02-16T11:10:48.352Z,13.85
2023-02-16T11:13:26.902Z,15.18
2023-02-16T11:15:57.415Z,14.60
2023-02-16T11:18:34.682Z,15.05
2023-02-16T11:21:04.213Z,15.34
2023-02-16T11:23:33.899Z,14.84
2023-02-16T11:26:05.806Z,15.72
2023-02-16T11:28:37.129Z,14.14
2023-02-16T11:31:19.356Z,13.57
2023-02-16T11:34:01.114Z,12.92
2023-02-16T11:36:34.326Z,13.56
2023-02-16T11:39:05.874Z,12.93
2023-02-16T11:41:34.933Z,13.46
2023-02-16T11:44:04.758Z,13.11
2023-02-16T11:46:40.810Z,12.30
2023-02-16T11:49:34.083Z,11.99
2023-02-16T11:52:18.451Z,12.18
2023-02-16T11:54:50.467Z,12.36
2023-02-16T11:57:25.350Z,12.24
2023-02-16T11:59:53.804Z,12.07
2023-02-16T12:02:48.321Z,11.61
2023-02-16T12:05:27.120Z,11.80
2023-02-16T12:08:19.511Z,12.03
2023-02-16T12:11:03.477Z,12.28
2023-02-16T12:13:41.354Z,11.33
2023-02-16T12:16:23.809Z,11.02
2023-02-16T12:19:04.952Z,10.97
2023-02-16T12:21:39.092Z,10.85
2023-02-16T12:24:23.744Z,11.09
2023-02-16T12:26:54.990Z,11.29
2023-02-16T12:29:39.365Z,12.51
2023-02-16T12:32:22.652Z,12.36
2023-02-16T12:35:04.210Z,11.58
2023-02-16T12:37:41.378Z,11.01
2023-02-16T12:40:21.067Z,12.71
2023-02-16T12:43:02.901Z,12.28
2023-02-16T12:45:36.631Z,11.84
2023-02-16T12:48:19.761Z,12.54
2023-02-16T12:50:51.210Z,12.04
2023-02-16T12:53:27.679Z,11.97
2023-02-16T12:56:00.350Z,12.97
2023-02-16T12:58:33.119Z,12.94
2023-02-16T13:01:07.531Z,13.03
2023-02-16T13:03:40.361Z,11.44
2023-02-16T13:06:15.724Z,11.81
2023-02-16T13:08:51.932Z,12.74
2023-02-16T13:11:25.738Z,12.47
2023-02-16T13:13:59.724Z,12.01
2023-02-16T13:16:38.491Z,12.65
2023-02-16T13:19:06.788Z,12.48
2023-02-16T13:21:54.257Z,11.67
2023-02-16T13:24:36.395Z,11.45
2023-02-16T13:27:21.929Z,11.69
2023-02-16T13:30:06.020Z,12.21
2023-02-16T13:32:50.381Z,11.79
2023-02-16T13:35:38.034Z,12.28
2023-02-16T13:38:28.026Z,11.70
2023-02-16T13:41:23.102Z,12.10
2023-02-16T13:43:56.475Z,11.81
2023-02-16T13:46:30.811Z,11.00
2023-02-16T13:48:59.861Z,11.26
2023-02-16T13:51:31.313Z,11.63
2023-02-16T13:54:01.574Z,11.46
2023-02-16T13:56:37.100Z,11.52
2023-02-16T13:59:57.089Z,11.25
2023-02-16T14:02:54.953Z,11.27
2023-02-16T14:05:28.013Z,10.76
2023-02-16T14:08:27.644Z,11.41
2023-02-16T14:11:04.973Z,11.04
2023-02-16T14:13:45.472Z,11.05
2023-02-16T14:16:29.083Z,10.80
2023-02-16T14:18:59.532Z,10.58
2023-02-16T14:21:38.233Z,10.11
2023-02-16T14:24:11.133Z,10.46
2023-02-16T14:27:09.418Z,11.51
2023-02-16T14:29:43.380Z,10.69
2023-02-16T14:32:25.433Z,11.20
2023-02-16T14:34:58.215Z,10.49
2023-02-16T14:37:34.989Z,10.28
2023-02-16T14:40:22.965Z,10.26
2023-02-16T14:42:55.426Z,10.31
2023-02-16T14:46:05.778Z,10.08
2023-02-16T14:48:58.354Z,10.19
2023-02-16T14:51:44.659Z,10.18
2023-02-16T14:55:09.179Z,9.71
2023-02-16T14:57:43.714Z,9.77
2023-02-16T15:00:19.830Z,9.80
2023-02-16T15:02:59.558Z,10.48
2023-02-16T15:05:30.839Z,9.94
2023-02-16T15:08:09.230Z,10.49
2023-02-16T15:10:40.240Z,10.40
2023-02-16T15:13:09.923Z,10.11
2023-02-16T15:15:45.177Z,10.61
2023-02-16T15:18:18.184Z,10.29
2023-02-16T15:20:49.365Z,10.59
2023-02-16T15:23:20.734Z,10.46
2023-02-16T15:25:58.785Z,11.15
2023-02-16T15:28:29.473Z,10.93
2023-02-16T15:31:00.055Z,10.11
2023-02-16T15:33:37.238Z,9.50
2023-02-16T15:36:09.038Z,9.56
2023-02-16T15:38:39.965Z,10.31
2023-02-16T15:41:10.655Z,10.25
2023-02-16T15:43:44.851Z,9.59
2023-02-16T15:46:24.358Z,9.55
2023-02-16T15:48:54.288Z,9.26
2023-02-16T15:51:27.345Z,9.50
2023-02-16T15:53:58.144Z,9.30
2023-02-16T15:56:39.588Z,9.09
2023-02-16T15:59:23.743Z,8.82
2023-02-16T16:01:59.220Z,8.74
2023-02-16T16:04:30.126Z,8.90
2023-02-16T16:07:00.718Z,8.66
2023-02-16T16:09:33.003Z,8.15
2023-02-16T16:12:04.181Z,7.98
2023-02-16T16:14:36.798Z,8.33
2023-02-16T16:17:05.445Z,8.02
2023-02-16T16:19:36.615Z,7.59
2023-02-16T16:22:15.463Z,7.24
2023-02-16T16:24:47.871Z,7.51
2023-02-16T16:27:15.898Z,7.23
2023-02-16T16:29:45.703Z,7.47
2023-02-16T16:32:21.244Z,7.38
2023-02-16T16:34:51.019Z,7.86
2023-02-16T16:37:28.403Z,7.53
2023-02-16T16:40:04.488Z,7.16
2023-02-16T16:42:33.624Z,7.12
2023-02-16T16:45:07.315Z,7.22
2023-02-16T16:47:38.962Z,7.25
2023-02-16T16:50:30.828Z,7.36
2023-02-16T16:52:59.487Z,7.91
2023-02-16T16:55:33.953Z,7.89
2023-02-16T16:58:05.185Z,7.91
2023-02-16T17:00:36.146Z,7.70
2023-02-16T17:03:05.259Z,8.06
2023-02-16T17:05:35.934Z,7.67
2023-02-16T17:08:04.352Z,7.92
2023-02-16T17:10:32.666Z,7.87
2023-02-16T17:13:01.151Z,7.83
2023-02-16T17:15:41.678Z,7.80
2023-02-16T17:18:14.610Z,7.32
2023-02-16T17:20:44.240Z,6.88
2023-02-16T17:23:13.145Z,6.85
2023-02-16T17:25:41.590Z,7.15
2023-02-16T17:28:11.200Z,7.14
2023-02-16T17:30:39.904Z,7.13
2023-02-16T17:33:08.264Z,6.61
2023-02-16T17:35:38.841Z,6.96
2023-02-16T17:38:10.188Z,6.76
2023-02-16T17:40:39.455Z,6.78
2023-02-16T17:43:12.628Z,6.84
2023-02-16T17:45:40.866Z,6.82
2023-02-16T17:48:12.321Z,6.76
2023-02-16T17:50:40.412Z,7.03
2023-02-16T17:53:13.715Z,7.36
2023-02-16T17:55:41.937Z,7.66
2023-02-16T17:58:11.943Z,7.11
2023-02-16T18:00:41.131Z,7.23
2023-02-16T18:03:09.861Z,7.44
2023-02-16T18:05:38.211Z,7.23
2023-02-16T18:08:06.934Z,7.48
2023-02-16T18:10:39.808Z,7.44
2023-02-16T18:13:09.729Z,7.18
2023-02-16T18:15:37.743Z,7.00
2023-02-16T18:18:06.122Z,7.58
2023-02-16T18:20:34.434Z,7.62
2023-02-16T18:23:02.932Z,7.95
2023-02-16T18:25:31.010Z,7.76
2023-02-16T18:28:00.522Z,7.40
2023-02-16T18:30:29.168Z,7.27
2023-02-16T18:32:57.626Z,6.96
2023-02-16T18:35:25.769Z,7.11
2023-02-16T18:37:53.738Z,7.13
2023-02-16T18:40:22.714Z,7.21
2023-02-16T18:42:51.191Z,7.08
2023-02-16T18:45:20.551Z,6.92
2023-02-16T18:47:56.674Z,7.32
2023-02-16T18:50:25.070Z,7.34
2023-02-16T18:52:53.311Z,7.31
2023-02-16T18:55:21.589Z,7.68
2023-02-16T18:57:49.997Z,7.69
2023-02-16T19:00:20.256Z,7.52
2023-02-16T19:02:50.577Z,7.38
2023-02-16T19:05:18.641Z,7.14
2023-02-16T19:07:47.149Z,7.33
2023-02-16T19:10:15.834Z,7.13
2023-02-16T19:12:44.094Z,7.04
2023-02-16T19:15:12.544Z,7.17
2023-02-16T19:17:40.502Z,7.17
2023-02-16T19:20:14.475Z,7.08
2023-02-16T19:22:42.897Z,7.12
2023-02-16T19:25:11.195Z,7.54
2023-02-16T19:27:39.209Z,7.62
2023-02-16T19:30:08.823Z,7.57
2023-02-16T19:32:38.556Z,7.68
2023-02-16T19:35:07.461Z,7.59
2023-02-16T19:37:37.041Z,7.19
2023-02-16T19:40:06.831Z,7.18
2023-02-16T19:42:35.309Z,7.18
2023-02-16T19:45:03.617Z,7.36
2023-02-16T19:47:32.075Z,7.32
2023-02-16T19:50:00.173Z,7.44
2023-02-16T19:52:28.281Z,7.44
2023-02-16T19:54:57.879Z,7.26
2023-02-16T19:57:25.927Z,7.16
2023-02-16T19:59:54.665Z,7.21
2023-02-16T20:02:22.838Z,7.19
2023-02-16T20:04:51.138Z,7.21
2023-02-16T20:07:19.273Z,7.36
2023-02-16T20:09:47.374Z,7.24
2023-02-16T20:12:16.817Z,7.39
2023-02-16T20:14:44.909Z,7.46
2023-02-16T20:17:13.519Z,7.30
2023-02-16T20:19:41.546Z,6.77
2023-02-16T20:22:09.617Z,7.26
2023-02-16T20:24:38.152Z,7.02
2023-02-16T20:27:06.513Z,7.29
2023-02-16T20:29:35.922Z,7.16
2023-02-16T20:32:05.781Z,6.97
2023-02-16T20:34:34.103Z,7.40
2023-02-16T20:37:02.789Z,7.03
2023-02-16T20:39:30.916Z,7.02
2023-02-16T20:41:59.412Z,7.36
2023-02-16T20:44:27.758Z,7.46
2023-02-16T20:46:59.734Z,7.33
2023-02-16T20:49:28.158Z,7.57
2023-02-16T20:51:56.467Z,7.37
2023-02-16T20:54:24.378Z,7.32
2023-02-16T20:56:52.619Z,7.34
2023-02-16T20:59:21.056Z,7.36
2023-02-16T21:01:52.326Z,7.51
2023-02-16T21:04:22.274Z,7.41
2023-02-16T21:06:50.815Z,7.31
2023-02-16T21:09:19.450Z,7.63
2023-02-16T21:11:47.745Z,7.44
2023-02-16T21:14:16.244Z,7.65
2023-02-16T21:16:44.252Z,7.25
2023-02-16T21:19:22.657Z,7.77
2023-02-16T21:21:52.840Z,7.86
2023-02-16T21:24:21.144Z,7.91
2023-02-16T21:26:49.351Z,8.30
2023-02-16T21:29:17.520Z,8.06
2023-02-16T21:31:45.840Z,8.63
2023-02-16T21:34:14.072Z,8.15
2023-02-16T21:36:42.253Z,8.45
2023-02-16T21:39:11.603Z,8.49
2023-02-16T21:41:38.643Z,8.96
2023-02-16T21:44:08.678Z,9.14
2023-02-16T21:46:39.220Z,8.91
2023-02-16T21:49:08.445Z,8.63
2023-02-16T21:51:40.870Z,8.45
2023-02-16T21:54:10.007Z,8.40
2023-02-16T21:56:40.791Z,8.25
2023-02-16T21:59:12.613Z,8.36
2023-02-16T22:01:42.753Z,8.35
2023-02-16T22:04:12.792Z,8.38
2023-02-16T22:06:42.952Z,8.56
2023-02-16T22:09:14.238Z,8.79
2023-02-16T22:11:43.591Z,8.83
2023-02-16T22:14:11.723Z,9.31
2023-02-16T22:16:40.698Z,9.32
2023-02-16T22:19:11.809Z,9.07
2023-02-16T22:21:42.328Z,8.94
2023-02-16T22:24:13.392Z,8.89
2023-02-16T22:26:41.694Z,8.60
2023-02-16T22:29:11.781Z,8.57
2023-02-16T22:31:44.177Z,8.79
2023-02-16T22:34:15.021Z,8.37
2023-02-16T22:36:43.536Z,8.03
2023-02-16T22:39:14.092Z,8.18
2023-02-16T22:41:42.283Z,8.38
2023-02-16T22:44:12.535Z,8.60
2023-02-16T22:46:40.934Z,8.57
2023-02-16T22:49:11.178Z,8.50
2023-02-16T22:51:39.392Z,8.12
2023-02-16T22:54:08.237Z,7.93
2023-02-16T22:56:36.322Z,8.18
2023-02-16T22:59:04.630Z,7.88
2023-02-16T23:01:34.839Z,8.26
2023-02-16T23:04:03.344Z,8.12
2023-02-16T23:06:33.352Z,8.03
2023-02-16T23:09:03.401Z,8.35
2023-02-16T23:11:31.867Z,8.35
2023-02-16T23:13:59.828Z,8.48
2023-02-16T23:16:28.850Z,8.53
2023-02-16T23:19:00.337Z,8.19
2023-02-16T23:21:29.911Z,8.19
2023-02-16T23:23:58.973Z,8.57
2023-02-16T23:26:29.452Z,8.62
2023-02-16T23:29:00.244Z,8.02
2023-02-16T23:31:31.687Z,8.54
2023-02-16T23:34:02.642Z,8.77
2023-02-16T23:36:31.031Z,8.36
2023-02-16T23:39:01.242Z,8.62
2023-02-16T23:41:29.912Z,8.71
2023-02-16T23:43:59.979Z,8.48
2023-02-16T23:46:29.375Z,8.95
2023-02-16T23:48:57.550Z,8.97
2023-02-16T23:51:27.302Z,9.13
2023-02-16T23:53:55.791Z,8.66
2023-02-16T23:56:25.276Z,8.85
2023-02-16T23:58:53.916Z,8.82
